Time;durP1;ratioP1;P1;durP2;ratioP2;P2;SDS_P1;SDS_P2;PMS_P1;PMS_P2;Temp;Humidity;BMP_temperature;BMP_pressure;BME280_temperature;BME280_humidity;BME280_pressure;Samples;Min_cycle;Max_cycle;Signal;HPM_P1;HPM_P2
2021/09/21 00:00:02;;;;;;;8.00;7.30;;;11.50;99.90;;;;;;5022028;28;20812;-76
2021/09/21 00:02:34;;;;;;;8.40;7.70;;;11.50;99.90;;;;;;5020882;28;20473;-76
2021/09/21 00:05:04;;;;;;;7.17;6.47;;;11.50;99.90;;;;;;5033839;28;20467;-76
2021/09/21 00:07:32;;;;;;;7.40;6.80;;;11.50;99.90;;;;;;5027089;28;20528;-76
2021/09/21 00:10:00;;;;;;;8.03;7.33;;;11.50;99.90;;;;;;5014158;28;20455;-76
2021/09/21 00:12:28;;;;;;;8.10;7.30;;;11.50;99.90;;;;;;5025281;28;20916;-76
2021/09/21 00:14:57;;;;;;;7.20;6.57;;;11.50;99.90;;;;;;5025665;28;21021;-76
2021/09/21 00:17:25;;;;;;;8.60;7.80;;;11.50;99.90;;;;;;5025917;28;20769;-76
2021/09/21 00:19:54;;;;;;;7.70;7.00;;;11.50;99.90;;;;;;5034770;28;20291;-76
2021/09/21 00:22:22;;;;;;;7.80;7.10;;;11.50;99.90;;;;;;5026292;28;20478;-76
2021/09/21 00:24:50;;;;;;;7.60;6.90;;;11.50;99.90;;;;;;5032925;28;21038;-76
2021/09/21 00:27:18;;;;;;;7.43;6.83;;;11.50;99.90;;;;;;5033826;28;20473;-76
2021/09/21 00:29:47;;;;;;;7.20;6.60;;;11.50;99.90;;;;;;5033608;28;20470;-76
2021/09/21 00:32:16;;;;;;;7.03;6.47;;;11.50;99.90;;;;;;5029429;28;20813;-75
2021/09/21 00:34:45;;;;;;;7.90;7.23;;;11.50;99.90;;;;;;5014816;28;20911;-76
2021/09/21 00:37:16;;;;;;;6.80;6.30;;;11.50;99.90;;;;;;5027596;28;20493;-76
2021/09/21 00:39:45;;;;;;;7.13;6.47;;;11.50;99.90;;;;;;5034593;28;20424;-76
2021/09/21 00:42:15;;;;;;;7.60;6.90;;;11.50;99.90;;;;;;5017465;28;21010;-76
2021/09/21 00:44:43;;;;;;;7.70;7.03;;;11.50;99.90;;;;;;5018392;28;20469;-76
2021/09/21 00:47:12;;;;;;;8.20;7.00;;;11.50;99.90;;;;;;5034571;28;20442;-76
2021/09/21 00:49:40;;;;;;;7.47;6.77;;;11.50;99.90;;;;;;5033059;28;20447;-76
2021/09/21 00:52:08;;;;;;;7.57;6.87;;;11.50;99.90;;;;;;5033346;28;20459;-76
2021/09/21 00:54:38;;;;;;;7.63;6.93;;;11.60;99.90;;;;;;5024842;28;20475;-76
2021/09/21 00:57:06;;;;;;;7.40;6.80;;;11.60;99.90;;;;;;5021177;28;20465;-76
2021/09/21 00:59:34;;;;;;;7.67;6.97;;;11.50;99.90;;;;;;5026601;28;20455;-75
2021/09/21 01:02:03;;;;;;;7.30;6.60;;;11.60;99.90;;;;;;5031856;28;20445;-76
2021/09/21 01:04:32;;;;;;;7.13;6.50;;;11.70;99.90;;;;;;5034103;28;20222;-76
2021/09/21 01:07:00;;;;;;;8.00;6.60;;;11.70;99.90;;;;;;5016647;28;20460;-76
2021/09/21 01:09:29;;;;;;;7.40;6.80;;;11.70;99.90;;;;;;5012425;28;20492;-76
2021/09/21 01:12:01;;;;;;;7.77;7.17;;;11.70;99.90;;;;;;5023057;28;20545;-76
2021/09/21 01:14:29;;;;;;;7.73;7.03;;;11.70;99.90;;;;;;5014618;28;20518;-76
2021/09/21 01:16:57;;;;;;;8.10;7.40;;;11.60;99.90;;;;;;5025623;28;20965;-76
2021/09/21 01:19:25;;;;;;;7.77;7.13;;;11.70;99.90;;;;;;5033724;28;20649;-76
2021/09/21 01:21:55;;;;;;;7.70;7.10;;;11.70;99.90;;;;;;5031347;28;20458;-76
2021/09/21 01:24:23;;;;;;;9.10;8.07;;;11.70;99.90;;;;;;5025993;28;20487;-76
2021/09/21 01:26:51;;;;;;;8.20;7.50;;;11.70;99.90;;;;;;5020753;28;20493;-76
2021/09/21 01:29:20;;;;;;;8.07;7.47;;;11.70;99.90;;;;;;5032369;28;20451;-76
2021/09/21 01:31:48;;;;;;;8.40;7.70;;;11.70;99.90;;;;;;5030728;28;20553;-76
2021/09/21 01:34:19;;;;;;;8.77;7.93;;;11.70;99.90;;;;;;5014892;28;20490;-76
2021/09/21 01:36:48;;;;;;;8.83;7.97;;;11.70;99.90;;;;;;5032426;28;20446;-76
2021/09/21 01:39:18;;;;;;;10.02;9.05;;;11.60;99.90;;;;;;5027671;28;20479;-76
2021/09/21 01:41:47;;;;;;;10.13;7.63;;;11.70;99.90;;;;;;5025272;28;20207;-76
2021/09/21 01:44:16;;;;;;;10.48;9.27;;;11.70;99.90;;;;;;5026254;28;20534;-76
2021/09/21 01:46:46;;;;;;;11.23;7.77;;;11.80;99.90;;;;;;5029138;28;20241;-76
2021/09/21 01:49:15;;;;;;;9.20;8.50;;;11.70;99.90;;;;;;5033394;28;20436;-76
2021/09/21 01:51:50;;;;;;;8.60;7.87;;;11.70;99.90;;;;;;5032125;28;20550;-76
2021/09/21 01:54:25;;;;;;;10.37;8.33;;;11.80;99.90;;;;;;5029967;28;20896;-75
2021/09/21 01:59:39;;;;;;;8.50;7.67;;;11.70;99.90;;;;;;5014140;28;20427;-76
2021/09/21 02:02:07;;;;;;;9.57;8.57;;;11.70;99.90;;;;;;5013577;28;20444;-76
2021/09/21 02:04:35;;;;;;;9.77;8.97;;;11.70;99.90;;;;;;5014024;28;20563;-76
2021/09/21 02:07:04;;;;;;;9.40;8.50;;;11.70;99.90;;;;;;5014076;28;20454;-76
2021/09/21 02:09:33;;;;;;;8.50;7.80;;;11.70;99.90;;;;;;5026095;28;20469;-76
2021/09/21 02:12:01;;;;;;;9.27;8.43;;;11.70;99.90;;;;;;5031923;28;20809;-76
2021/09/21 02:14:29;;;;;;;9.77;8.77;;;11.70;99.90;;;;;;5029407;28;20998;-76
2021/09/21 02:16:57;;;;;;;9.03;8.23;;;11.70;99.90;;;;;;5028009;28;20448;-76
2021/09/21 02:19:26;;;;;;;9.70;8.80;;;11.70;99.90;;;;;;5012522;28;20444;-76
2021/09/21 02:21:54;;;;;;;9.33;8.53;;;11.70;99.90;;;;;;5030376;28;20798;-76
2021/09/21 02:24:23;;;;;;;9.98;8.98;;;11.70;99.90;;;;;;5034068;28;20481;-76
2021/09/21 02:26:53;;;;;;;8.57;7.77;;;11.80;99.90;;;;;;5016222;28;20679;-76
2021/09/21 02:29:21;;;;;;;9.65;8.68;;;11.90;99.90;;;;;;5026651;28;20532;-76
2021/09/21 02:31:49;;;;;;;9.30;8.37;;;11.90;99.90;;;;;;5037306;28;20579;-76
2021/09/21 02:34:17;;;;;;;9.10;8.30;;;11.90;99.90;;;;;;5037084;28;20439;-76
2021/09/21 02:36:46;;;;;;;8.87;8.00;;;11.80;99.90;;;;;;5028976;28;20447;-76
2021/09/21 02:39:14;;;;;;;9.27;8.50;;;11.80;99.90;;;;;;5031176;28;20451;-76
2021/09/21 02:41:42;;;;;;;10.27;9.37;;;11.80;99.90;;;;;;5015779;28;20440;-76
2021/09/21 02:44:12;;;;;;;10.10;9.20;;;11.80;99.90;;;;;;5015488;28;20472;-76
2021/09/21 02:46:41;;;;;;;9.43;8.40;;;11.80;99.90;;;;;;5023400;28;20450;-76
2021/09/21 02:49:09;;;;;;;10.00;9.10;;;11.80;99.90;;;;;;5036605;28;20442;-76
2021/09/21 02:51:37;;;;;;;10.20;9.10;;;11.80;99.90;;;;;;5022425;28;20912;-76
2021/09/21 02:54:05;;;;;;;10.53;9.57;;;11.80;99.90;;;;;;5016922;28;20946;-76
2021/09/21 02:56:33;;;;;;;9.60;8.70;;;11.80;99.90;;;;;;5017158;28;20505;-76
2021/09/21 02:59:01;;;;;;;10.67;9.67;;;11.80;99.90;;;;;;5017012;28;20941;-76
2021/09/21 03:01:31;;;;;;;10.23;9.20;;;11.80;99.90;;;;;;5017518;28;20974;-76
2021/09/21 03:04:03;;;;;;;9.60;8.80;;;11.80;99.90;;;;;;5027396;28;20475;-76
2021/09/21 03:06:33;;;;;;;10.13;9.33;;;11.80;99.90;;;;;;5027306;28;20455;-76
2021/09/21 03:09:09;;;;;;;9.80;8.90;;;11.80;99.90;;;;;;5035001;28;20484;-76
2021/09/21 03:11:41;;;;;;;10.70;9.60;;;11.80;99.90;;;;;;5029697;28;20526;-76
2021/09/21 03:17:17;;;;;;;10.20;9.40;;;11.80;99.90;;;;;;5027027;28;20984;-76
2021/09/21 03:19:46;;;;;;;10.30;9.40;;;11.80;99.90;;;;;;5034783;28;20942;-76
2021/09/21 03:22:14;;;;;;;11.17;10.17;;;11.80;99.90;;;;;;5035864;28;20439;-76
2021/09/21 03:24:42;;;;;;;11.13;10.13;;;11.80;99.90;;;;;;5035660;28;20487;-76
2021/09/21 03:27:10;;;;;;;10.57;9.57;;;11.80;99.90;;;;;;5034254;28;20434;-76
2021/09/21 03:29:38;;;;;;;10.40;9.50;;;11.80;99.90;;;;;;5035879;28;20497;-76
2021/09/21 03:32:08;;;;;;;11.80;10.60;;;11.80;99.90;;;;;;5033354;28;20446;-76
2021/09/21 03:34:37;;;;;;;10.90;10.00;;;11.80;99.90;;;;;;5014690;28;20460;-76
2021/09/21 03:37:06;;;;;;;10.77;9.87;;;11.80;99.90;;;;;;5014586;28;20447;-76
2021/09/21 03:39:34;;;;;;;11.80;9.87;;;11.80;99.90;;;;;;5015754;28;20815;-76
2021/09/21 03:42:03;;;;;;;12.60;11.43;;;11.80;99.90;;;;;;5014601;28;20439;-76
2021/09/21 03:44:32;;;;;;;10.40;9.47;;;11.80;99.90;;;;;;5014431;28;20519;-76
2021/09/21 03:47:00;;;;;;;10.77;9.87;;;11.80;99.90;;;;;;5014374;28;20552;-76
2021/09/21 03:49:30;;;;;;;10.07;9.27;;;11.80;99.90;;;;;;5033973;28;20467;-76
2021/09/21 03:51:58;;;;;;;11.10;10.10;;;11.80;99.90;;;;;;5033431;28;20455;-76
2021/09/21 03:54:26;;;;;;;9.10;8.20;;;11.90;99.90;;;;;;5031157;28;20559;-76
2021/09/21 03:56:55;;;;;;;10.70;9.70;;;11.90;99.90;;;;;;5019054;28;20936;-76
2021/09/21 03:59:24;;;;;;;10.10;8.80;;;11.90;99.90;;;;;;5034086;28;20574;-76
2021/09/21 04:01:53;;;;;;;10.93;9.77;;;11.90;99.90;;;;;;5034246;28;20458;-76
2021/09/21 04:04:21;;;;;;;11.30;10.30;;;11.90;99.90;;;;;;5017633;28;20472;-76
2021/09/21 04:06:51;;;;;;;10.03;9.10;;;11.90;99.90;;;;;;5014131;28;20983;-76
2021/09/21 04:09:19;;;;;;;9.13;8.33;;;11.80;99.90;;;;;;5015850;28;20541;-76
2021/09/21 04:11:47;;;;;;;10.80;9.70;;;11.80;99.90;;;;;;5014130;28;20444;-76
2021/09/21 04:14:16;;;;;;;11.00;10.10;;;11.80;99.90;;;;;;5022029;28;20956;-77
2021/09/21 04:16:44;;;;;;;10.27;9.27;;;11.80;99.90;;;;;;5034888;28;20549;-76
2021/09/21 04:19:12;;;;;;;9.87;9.07;;;11.80;99.90;;;;;;5033612;28;20471;-76
2021/09/21 04:21:40;;;;;;;11.53;10.43;;;11.80;99.90;;;;;;5033565;28;20453;-76
2021/09/21 04:24:10;;;;;;;10.13;9.33;;;11.80;99.90;;;;;;5028981;28;20567;-76
2021/09/21 04:26:38;;;;;;;11.00;10.00;;;11.80;99.90;;;;;;5035140;28;20445;-77
2021/09/21 04:29:06;;;;;;;10.27;8.70;;;11.80;99.90;;;;;;5033566;28;20451;-76
2021/09/21 04:31:38;;;;;;;10.33;9.40;;;11.80;99.90;;;;;;5034665;28;20466;-76
2021/09/21 04:34:06;;;;;;;10.23;9.43;;;11.80;99.90;;;;;;5034598;28;20479;-76
2021/09/21 04:36:34;;;;;;;11.25;10.00;;;11.80;99.90;;;;;;5028475;28;20934;-76
2021/09/21 04:39:02;;;;;;;9.50;8.70;;;11.80;99.90;;;;;;5021114;28;20203;-76
2021/09/21 04:41:32;;;;;;;10.40;9.40;;;11.90;99.90;;;;;;5014313;28;20473;-76
2021/09/21 04:44:00;;;;;;;8.97;8.07;;;11.90;99.90;;;;;;5013973;28;20223;-76
2021/09/21 04:46:28;;;;;;;10.90;10.00;;;11.90;99.90;;;;;;5014422;28;20459;-76
2021/09/21 04:48:56;;;;;;;9.87;8.93;;;11.90;99.90;;;;;;5028334;28;20452;-76
2021/09/21 04:51:24;;;;;;;10.43;9.43;;;11.90;99.90;;;;;;5033034;28;20471;-76
2021/09/21 04:53:52;;;;;;;9.23;8.33;;;11.80;99.90;;;;;;5032938;28;20469;-76
2021/09/21 04:56:21;;;;;;;9.80;8.03;;;11.90;99.90;;;;;;5032774;28;21049;-76
2021/09/21 04:58:50;;;;;;;9.63;8.73;;;11.80;99.90;;;;;;5034481;28;20450;-76
2021/09/21 05:01:18;;;;;;;10.37;9.23;;;11.90;99.90;;;;;;5034093;28;20449;-76
2021/09/21 05:03:47;;;;;;;8.73;7.90;;;11.90;99.90;;;;;;5032839;28;20977;-76
2021/09/21 05:06:18;;;;;;;8.90;8.17;;;11.90;99.90;;;;;;5031747;28;20487;-76
2021/09/21 05:08:46;;;;;;;9.50;8.70;;;11.90;99.90;;;;;;5032823;28;20892;-76
2021/09/21 05:11:14;;;;;;;10.30;9.20;;;11.90;99.90;;;;;;5032201;28;20447;-76
2021/09/21 05:13:42;;;;;;;8.57;7.77;;;11.90;99.90;;;;;;5032709;28;20950;-76
2021/09/21 05:16:12;;;;;;;8.83;7.87;;;11.90;99.90;;;;;;5033879;28;20461;-76
2021/09/21 05:18:40;;;;;;;9.23;8.33;;;11.80;99.90;;;;;;5032541;28;20463;-76
2021/09/21 05:21:08;;;;;;;10.00;9.10;;;11.80;99.90;;;;;;5033587;28;20445;-76
2021/09/21 05:23:36;;;;;;;10.03;8.43;;;11.90;99.90;;;;;;5032627;28;20442;-76
2021/09/21 05:26:05;;;;;;;9.77;8.87;;;11.90;99.90;;;;;;5033941;28;20471;-76
2021/09/21 05:28:33;;;;;;;9.60;8.70;;;11.90;99.90;;;;;;5034254;28;20454;-76
2021/09/21 05:31:04;;;;;;;10.77;9.87;;;11.90;99.90;;;;;;5032419;28;20534;-76
2021/09/21 05:33:33;;;;;;;9.60;8.80;;;11.90;99.90;;;;;;5032385;28;20447;-76
2021/09/21 05:36:01;;;;;;;10.23;9.30;;;11.80;99.90;;;;;;5033773;28;20451;-76
2021/09/21 05:38:31;;;;;;;11.87;10.10;;;11.90;99.90;;;;;;5033824;28;20522;-76
2021/09/21 05:40:59;;;;;;;9.70;8.80;;;11.80;99.90;;;;;;5032370;28;20498;-76
2021/09/21 05:43:27;;;;;;;10.80;9.60;;;11.80;99.90;;;;;;5032232;28;20447;-76
2021/09/21 05:45:55;;;;;;;10.43;9.43;;;11.80;99.90;;;;;;5032014;28;20482;-76
2021/09/21 05:48:24;;;;;;;8.93;8.23;;;11.80;99.90;;;;;;5032203;28;20447;-76
2021/09/21 05:50:53;;;;;;;9.90;9.00;;;11.80;99.90;;;;;;5033652;28;20443;-76
2021/09/21 05:53:21;;;;;;;10.60;9.63;;;11.80;99.90;;;;;;5032134;28;20530;-76
2021/09/21 05:55:49;;;;;;;10.80;9.77;;;11.80;99.90;;;;;;5031805;28;20466;-77
2021/09/21 05:58:18;;;;;;;10.70;9.70;;;11.90;99.90;;;;;;5032098;28;20507;-76
2021/09/21 06:00:46;;;;;;;11.67;10.20;;;11.90;99.90;;;;;;5032156;28;20800;-76
2021/09/21 06:03:14;;;;;;;10.90;9.80;;;11.90;99.90;;;;;;5031949;28;20447;-76
2021/09/21 06:05:43;;;;;;;10.18;9.25;;;11.90;99.90;;;;;;5032241;28;20449;-76
2021/09/21 06:08:12;;;;;;;9.60;8.63;;;12.00;99.90;;;;;;5033532;28;20275;-77
2021/09/21 06:10:41;;;;;;;10.80;9.30;;;12.00;99.90;;;;;;5031505;28;20472;-77
2021/09/21 06:13:09;;;;;;;9.93;8.93;;;12.00;99.90;;;;;;5031991;28;20442;-76
2021/09/21 06:15:40;;;;;;;10.40;9.40;;;12.00;99.90;;;;;;5033162;28;20553;-77
2021/09/21 06:18:08;;;;;;;9.97;9.10;;;12.10;99.90;;;;;;5031924;28;20516;-77
2021/09/21 06:20:37;;;;;;;10.73;9.60;;;12.10;99.90;;;;;;5033035;28;20438;-77
2021/09/21 06:23:05;;;;;;;10.10;9.23;;;12.10;99.90;;;;;;5032234;28;20453;-77
2021/09/21 06:25:35;;;;;;;10.90;9.93;;;12.10;99.90;;;;;;5033173;28;20541;-76
2021/09/21 06:28:03;;;;;;;9.90;8.90;;;12.10;99.90;;;;;;5031811;28;20532;-76
2021/09/21 06:30:32;;;;;;;9.83;8.80;;;12.20;99.90;;;;;;5033248;28;20522;-76
2021/09/21 06:33:01;;;;;;;10.20;9.30;;;12.20;99.90;;;;;;5031840;28;20453;-76
2021/09/21 06:35:29;;;;;;;10.93;9.93;;;12.20;99.90;;;;;;5031734;28;20512;-76
2021/09/21 06:37:57;;;;;;;10.50;9.37;;;12.20;99.90;;;;;;5031985;28;20470;-76
2021/09/21 06:40:26;;;;;;;10.97;9.97;;;12.20;99.90;;;;;;5033007;28;20442;-76
2021/09/21 06:42:56;;;;;;;11.10;9.93;;;12.20;99.90;;;;;;5033277;28;20496;-77
2021/09/21 06:45:24;;;;;;;8.80;8.00;;;12.30;99.90;;;;;;5032715;28;20569;-76
2021/09/21 06:47:52;;;;;;;10.23;9.30;;;12.30;99.90;;;;;;5031666;28;20946;-76
2021/09/21 06:50:20;;;;;;;11.88;10.52;;;12.30;99.90;;;;;;5031955;28;20857;-76
2021/09/21 06:52:48;;;;;;;11.60;9.57;;;12.40;99.90;;;;;;5032437;28;20588;-76
2021/09/21 06:55:17;;;;;;;11.60;10.43;;;12.40;99.90;;;;;;5030933;28;20933;-76
2021/09/21 06:57:50;;;;;;;10.20;9.30;;;12.50;99.90;;;;;;5032267;28;20193;-76
2021/09/21 07:00:21;;;;;;;10.73;9.63;;;12.50;99.90;;;;;;5033047;28;20830;-77
2021/09/21 07:02:52;;;;;;;10.13;9.13;;;12.60;99.90;;;;;;5033091;28;20415;-76
2021/09/21 07:05:21;;;;;;;11.13;10.13;;;12.60;99.90;;;;;;5031403;28;20478;-77
2021/09/21 07:07:51;;;;;;;9.70;8.90;;;12.60;99.90;;;;;;5033758;28;20443;-76
2021/09/21 07:10:21;;;;;;;11.73;9.33;;;12.60;99.90;;;;;;5035030;28;20557;-77
2021/09/21 07:12:49;;;;;;;10.67;9.77;;;12.70;99.90;;;;;;5036240;28;20451;-76
2021/09/21 07:15:22;;;;;;;11.70;9.70;;;12.70;99.90;;;;;;5036434;28;20494;-77
2021/09/21 07:17:51;;;;;;;10.53;9.47;;;12.70;99.90;;;;;;5034874;28;20446;-77
2021/09/21 07:20:34;;;;;;;10.40;9.40;;;12.70;99.90;;;;;;5036269;28;20950;-76
2021/09/21 07:23:22;;;;;;;10.27;9.27;;;12.80;99.90;;;;;;5035298;28;20477;-77
2021/09/21 07:26:00;;;;;;;11.73;10.40;;;12.80;99.90;;;;;;5035008;28;20483;-77
2021/09/21 07:28:29;;;;;;;10.07;8.83;;;12.90;99.90;;;;;;5034780;28;20539;-76
2021/09/21 07:30:58;;;;;;;9.70;8.90;;;12.90;99.90;;;;;;5034674;28;20450;-77
2021/09/21 07:33:26;;;;;;;10.65;9.65;;;13.00;99.90;;;;;;5034220;28;20452;-76
2021/09/21 07:35:55;;;;;;;10.10;9.20;;;13.00;99.90;;;;;;5034682;28;20225;-76
2021/09/21 07:38:23;;;;;;;10.37;9.30;;;13.10;99.90;;;;;;5035099;28;20447;-75
2021/09/21 07:40:51;;;;;;;10.47;9.43;;;13.10;99.90;;;;;;5034679;28;20542;-76
2021/09/21 07:43:19;;;;;;;9.40;8.60;;;13.10;99.90;;;;;;5035396;28;20952;-76
2021/09/21 07:45:47;;;;;;;9.43;8.50;;;13.20;99.90;;;;;;5035810;28;20542;-76
2021/09/21 07:48:20;;;;;;;11.20;8.87;;;13.20;99.90;;;;;;5034641;28;20450;-77
2021/09/21 07:50:48;;;;;;;9.67;8.77;;;13.20;99.90;;;;;;5035072;28;20451;-76
2021/09/21 07:53:17;;;;;;;10.10;9.10;;;13.30;99.90;;;;;;5034649;28;20449;-77
2021/09/21 07:55:46;;;;;;;15.43;10.10;;;13.30;99.90;;;;;;5036023;28;20477;-76
2021/09/21 07:58:15;;;;;;;10.10;9.20;;;13.30;99.90;;;;;;5034494;28;20459;-76
2021/09/21 08:00:43;;;;;;;12.00;9.70;;;13.40;99.90;;;;;;5034558;28;20541;-76
2021/09/21 08:03:11;;;;;;;12.53;11.20;;;13.40;99.90;;;;;;5034774;28;20443;-75
2021/09/21 08:05:41;;;;;;;9.40;8.60;;;13.40;99.90;;;;;;5034725;28;20483;-76
2021/09/21 08:08:09;;;;;;;12.93;10.50;;;13.50;99.90;;;;;;5034135;28;20887;-76
2021/09/21 08:10:38;;;;;;;10.50;9.50;;;13.50;99.90;;;;;;5034296;28;21045;-76
2021/09/21 08:13:06;;;;;;;9.37;8.57;;;13.50;99.90;;;;;;5034426;28;20534;-76
2021/09/21 08:15:34;;;;;;;10.10;9.17;;;13.60;99.90;;;;;;5033926;28;20463;-76
2021/09/21 08:18:06;;;;;;;11.13;10.13;;;13.60;99.90;;;;;;5033180;28;20449;-77
2021/09/21 08:20:35;;;;;;;10.00;9.00;;;13.70;99.90;;;;;;5034012;28;20852;-76
2021/09/21 08:23:04;;;;;;;10.03;9.13;;;13.70;99.90;;;;;;5033300;28;20448;-76
2021/09/21 08:25:33;;;;;;;11.00;9.13;;;13.80;99.90;;;;;;5033806;28;20475;-77
2021/09/21 08:28:01;;;;;;;9.70;8.80;;;13.90;99.90;;;;;;5033908;28;20471;-76
2021/09/21 08:30:31;;;;;;;10.53;9.43;;;13.90;99.90;;;;;;5033611;28;20457;-76
2021/09/21 08:32:59;;;;;;;11.80;9.67;;;13.90;99.90;;;;;;5033408;28;20454;-76
2021/09/21 08:35:28;;;;;;;9.33;8.43;;;14.00;99.90;;;;;;5034793;28;20546;-77
2021/09/21 08:37:56;;;;;;;9.50;8.57;;;14.00;99.90;;;;;;5033309;28;21033;-77
2021/09/21 08:40:26;;;;;;;10.23;9.20;;;14.10;99.90;;;;;;5033261;28;20450;-76
2021/09/21 08:42:57;;;;;;;10.20;9.13;;;14.10;99.90;;;;;;5034914;28;20870;-76
2021/09/21 08:45:25;;;;;;;9.77;8.80;;;14.10;99.90;;;;;;5033103;28;20717;-77
2021/09/21 08:47:54;;;;;;;10.03;9.03;;;14.20;99.90;;;;;;5033136;28;20506;-76
2021/09/21 08:50:24;;;;;;;9.80;7.80;;;14.20;99.90;;;;;;5034380;28;20446;-76
2021/09/21 08:52:53;;;;;;;9.57;8.53;;;14.30;99.90;;;;;;5033074;28;20494;-76
2021/09/21 08:55:22;;;;;;;9.33;8.43;;;14.30;99.90;;;;;;5032773;28;20880;-76
2021/09/21 08:57:57;;;;;;;9.40;8.50;;;14.40;99.90;;;;;;5032884;28;20559;-76
2021/09/21 09:00:27;;;;;;;8.57;7.40;;;14.50;99.90;;;;;;5034186;28;20493;-77
2021/09/21 09:03:07;;;;;;;8.80;8.10;;;14.50;99.90;;;;;;5034043;28;20525;-77
2021/09/21 09:05:43;;;;;;;9.40;8.50;;;14.60;99.90;;;;;;5033658;28;21055;-77
2021/09/21 09:08:12;;;;;;;8.10;7.43;;;14.70;99.90;;;;;;5032807;28;20471;-77
2021/09/21 09:10:40;;;;;;;8.83;8.00;;;14.90;99.90;;;;;;5033278;28;20453;-76
2021/09/21 09:13:18;;;;;;;8.20;7.40;;;14.90;99.90;;;;;;5032550;28;20883;-76
2021/09/21 09:15:54;;;;;;;8.33;7.40;;;15.00;99.90;;;;;;5032389;28;20479;-76
2021/09/21 09:18:27;;;;;;;7.87;7.13;;;15.10;99.90;;;;;;5032940;28;20474;-77
2021/09/21 09:20:55;;;;;;;7.97;7.17;;;15.20;99.90;;;;;;5032476;28;20457;-77
2021/09/21 09:23:23;;;;;;;7.93;7.13;;;15.10;99.90;;;;;;5032517;28;20790;-77
2021/09/21 09:25:51;;;;;;;7.83;7.13;;;15.20;99.90;;;;;;5032416;28;20838;-77
2021/09/21 09:28:25;;;;;;;8.27;7.53;;;15.20;99.90;;;;;;5033628;28;20493;-77
2021/09/21 09:30:55;;;;;;;7.20;6.47;;;15.30;99.90;;;;;;5032126;28;20489;-77
2021/09/21 09:33:24;;;;;;;7.13;6.53;;;15.30;99.90;;;;;;5033859;28;20429;-76
2021/09/21 09:35:52;;;;;;;7.93;6.83;;;15.40;99.90;;;;;;5032090;28;20475;-77
2021/09/21 09:38:22;;;;;;;7.63;6.80;;;15.40;99.90;;;;;;5033466;28;20892;-76
2021/09/21 09:40:53;;;;;;;7.25;6.55;;;15.40;99.90;;;;;;5031744;28;20561;-76
2021/09/21 09:43:25;;;;;;;8.90;7.70;;;15.50;99.90;;;;;;5033514;28;20723;-76
2021/09/21 09:45:55;;;;;;;7.50;6.70;;;15.50;99.90;;;;;;5032172;28;20525;-76
2021/09/21 09:48:25;;;;;;;7.30;6.60;;;15.60;99.90;;;;;;5031994;28;20478;-77
2021/09/21 09:50:56;;;;;;;8.33;6.87;;;15.60;99.90;;;;;;5033312;28;20439;-76
2021/09/21 09:53:26;;;;;;;7.57;6.87;;;15.60;99.90;;;;;;5033590;28;20514;-76
2021/09/21 09:55:56;;;;;;;7.20;6.50;;;15.70;99.90;;;;;;5033265;28;20466;-77
2021/09/21 09:58:27;;;;;;;7.50;6.63;;;15.70;99.90;;;;;;5031862;28;20550;-77
2021/09/21 10:00:56;;;;;;;7.30;6.60;;;15.80;99.90;;;;;;5033744;28;20419;-77
2021/09/21 10:03:26;;;;;;;6.83;6.20;;;15.80;99.90;;;;;;5032224;28;20424;-76
2021/09/21 10:05:55;;;;;;;7.40;6.70;;;15.80;99.90;;;;;;5032145;28;20444;-76
2021/09/21 10:08:26;;;;;;;7.23;6.53;;;15.90;99.90;;;;;;5034039;28;20537;-77
2021/09/21 10:10:55;;;;;;;7.10;6.40;;;15.90;99.90;;;;;;5033308;28;20504;-77
2021/09/21 10:13:25;;;;;;;7.00;6.30;;;15.90;99.90;;;;;;5031857;28;20516;-77
2021/09/21 10:15:53;;;;;;;7.07;6.40;;;15.90;99.90;;;;;;5032884;28;20437;-77
2021/09/21 10:18:23;;;;;;;8.10;7.03;;;16.00;99.90;;;;;;5031686;28;20465;-76
2021/09/21 10:20:58;;;;;;;8.27;7.47;;;16.00;99.90;;;;;;5032821;28;20503;-76
2021/09/21 10:23:32;;;;;;;7.90;7.20;;;16.00;99.90;;;;;;5031944;28;20837;-76
2021/09/21 10:26:14;;;;;;;6.70;6.03;;;16.00;99.90;;;;;;5033331;28;20532;-77
2021/09/21 10:28:46;;;;;;;6.70;6.00;;;16.00;99.90;;;;;;5033259;28;21002;-76
2021/09/21 10:31:17;;;;;;;8.87;6.03;;;16.10;99.90;;;;;;5032715;28;20409;-76
2021/09/21 10:33:45;;;;;;;6.90;6.30;;;16.10;99.90;;;;;;5031846;28;20422;-76
2021/09/21 10:36:18;;;;;;;6.60;6.00;;;16.10;99.90;;;;;;5032885;28;20429;-76
2021/09/21 10:38:57;;;;;;;7.07;6.43;;;16.10;99.90;;;;;;5031389;28;20473;-77
2021/09/21 10:41:26;;;;;;;6.60;6.00;;;16.20;99.90;;;;;;5031675;28;20432;-77
2021/09/21 10:44:01;;;;;;;7.00;6.30;;;16.10;99.90;;;;;;5035734;28;20440;-77
2021/09/21 10:46:29;;;;;;;7.43;5.97;;;16.20;99.90;;;;;;5035510;28;20501;-76
2021/09/21 10:49:04;;;;;;;7.33;6.73;;;16.20;99.90;;;;;;5035337;28;20446;-76
2021/09/21 10:51:32;;;;;;;8.83;7.17;;;16.30;99.90;;;;;;5035259;28;20405;-76
2021/09/21 10:54:05;;;;;;;6.80;6.20;;;16.30;99.90;;;;;;5035241;28;20429;-77
2021/09/21 10:56:40;;;;;;;8.47;6.23;;;16.30;99.90;;;;;;5035179;28;20421;-76
2021/09/21 10:59:19;;;;;;;8.47;7.00;;;16.30;99.90;;;;;;5035321;28;20406;-76
2021/09/21 11:01:48;;;;;;;7.30;6.60;;;16.40;99.90;;;;;;5035524;28;20433;-77
2021/09/21 11:04:17;;;;;;;7.57;6.40;;;16.50;99.90;;;;;;5035073;28;20207;-77
2021/09/21 11:06:45;;;;;;;6.87;5.47;;;16.50;99.90;;;;;;5035138;28;20425;-76
2021/09/21 11:09:24;;;;;;;7.50;6.80;;;16.50;99.90;;;;;;5036145;28;20445;-76
2021/09/21 11:11:56;;;;;;;6.87;6.10;;;16.50;99.90;;;;;;5035050;28;20439;-77
2021/09/21 11:14:27;;;;;;;6.30;5.70;;;16.60;99.90;;;;;;5034819;28;20475;-76
2021/09/21 11:16:55;;;;;;;7.10;6.40;;;16.60;99.90;;;;;;5044569;23;20557;-77
2021/09/21 11:19:29;;;;;;;6.50;5.90;;;16.60;99.90;;;;;;5014957;28;20515;-77
2021/09/21 11:21:59;;;;;;;6.70;6.10;;;16.60;99.90;;;;;;5016461;28;20850;-77
2021/09/21 11:24:27;;;;;;;7.00;6.30;;;16.60;99.90;;;;;;4998478;28;20533;-77
2021/09/21 11:27:00;;;;;;;6.60;6.00;;;16.70;99.90;;;;;;4998473;28;20789;-77
2021/09/21 11:29:30;;;;;;;7.10;6.40;;;16.70;99.90;;;;;;5015935;28;20495;-77
2021/09/21 11:31:58;;;;;;;7.20;6.40;;;16.70;99.90;;;;;;5015896;28;20432;-77
2021/09/21 11:34:29;;;;;;;6.87;6.27;;;16.80;99.90;;;;;;5015935;28;20517;-77
2021/09/21 11:37:03;;;;;;;6.67;6.07;;;16.80;99.90;;;;;;4999170;28;20426;-77
2021/09/21 11:39:31;;;;;;;7.20;6.50;;;16.80;99.90;;;;;;5015720;28;20517;-77
2021/09/21 11:42:00;;;;;;;7.53;6.60;;;16.80;99.90;;;;;;5014562;28;20192;-76
2021/09/21 11:44:39;;;;;;;6.40;5.73;;;16.90;99.90;;;;;;5015927;28;21011;-77
2021/09/21 11:47:07;;;;;;;7.63;6.87;;;16.90;99.90;;;;;;4998055;28;20443;-77
2021/09/21 11:49:35;;;;;;;7.00;6.30;;;16.90;99.90;;;;;;5016296;28;20923;-77
2021/09/21 11:52:05;;;;;;;7.50;6.80;;;16.90;99.90;;;;;;5014246;28;20448;-77
2021/09/21 11:54:34;;;;;;;9.37;6.23;;;17.00;99.90;;;;;;5015244;28;20550;-77
2021/09/21 11:57:02;;;;;;;6.73;6.10;;;17.00;99.90;;;;;;4998061;28;20517;-77
2021/09/21 11:59:32;;;;;;;7.43;6.73;;;17.00;99.90;;;;;;4997888;28;20426;-77
2021/09/21 12:02:02;;;;;;;5.87;5.17;;;17.00;99.90;;;;;;5014192;28;20970;-77
2021/09/21 12:04:32;;;;;;;6.07;5.47;;;17.10;99.90;;;;;;5013850;28;20447;-76
2021/09/21 12:07:02;;;;;;;7.00;6.30;;;17.10;99.90;;;;;;5015336;28;20449;-77
2021/09/21 12:09:30;;;;;;;5.30;4.80;;;17.10;99.90;;;;;;5015468;28;20472;-77
2021/09/21 12:11:58;;;;;;;6.10;5.43;;;17.20;99.90;;;;;;5015194;28;20421;-77
2021/09/21 12:14:27;;;;;;;7.60;6.30;;;17.20;99.90;;;;;;5014066;28;20446;-77
2021/09/21 12:16:56;;;;;;;6.38;5.85;;;17.30;99.90;;;;;;4997090;28;20454;-77
2021/09/21 12:19:26;;;;;;;7.20;5.63;;;17.30;99.90;;;;;;4997451;28;20244;-77
2021/09/21 12:22:00;;;;;;;6.27;5.67;;;17.40;99.90;;;;;;5015375;28;20434;-77
2021/09/21 12:24:31;;;;;;;6.40;5.80;;;17.40;99.90;;;;;;4997377;28;20470;-77
2021/09/21 12:27:03;;;;;;;6.30;5.70;;;17.40;99.90;;;;;;5013752;28;20423;-77
2021/09/21 12:29:33;;;;;;;7.70;6.40;;;17.50;99.90;;;;;;4998217;28;20431;-76
2021/09/21 12:32:04;;;;;;;5.50;5.10;;;17.50;99.90;;;;;;4997275;28;20448;-77
2021/09/21 12:34:36;;;;;;;6.27;5.70;;;17.60;99.90;;;;;;5013482;28;20446;-77
2021/09/21 12:37:04;;;;;;;6.47;5.83;;;17.60;99.90;;;;;;5015089;28;20756;-77
2021/09/21 12:39:34;;;;;;;7.17;6.57;;;17.60;99.90;;;;;;4997097;28;20448;-77
2021/09/21 12:42:04;;;;;;;6.20;5.70;;;17.60;99.90;;;;;;4997061;28;20452;-77
2021/09/21 12:44:32;;;;;;;7.40;6.70;;;17.70;99.90;;;;;;4997001;28;20498;-77
2021/09/21 12:47:00;;;;;;;7.40;5.80;;;17.70;99.90;;;;;;5013382;28;20543;-77
2021/09/21 12:49:30;;;;;;;7.03;6.33;;;17.70;99.90;;;;;;5014379;28;20464;-76
2021/09/21 12:52:00;;;;;;;8.10;6.67;;;17.70;99.90;;;;;;4996944;28;20435;-77
2021/09/21 12:54:29;;;;;;;6.55;5.85;;;17.80;99.90;;;;;;4996481;28;20786;-77
2021/09/21 12:56:58;;;;;;;6.97;6.27;;;17.80;99.90;;;;;;4997378;28;20211;-77
2021/09/21 12:59:30;;;;;;;8.13;6.93;;;17.80;99.90;;;;;;5014703;28;20435;-77